aviador You're here:

KMYJ Decoded Metar

in
Report Time2017-11-23 21:35:00
UTC Time2017-11-23 22:07:23
Flight Rules vfr VFR
WindCalm
Visibility9999 m
Phenomena:N/A
Clouds:N/A
Expected CloudBase > 4,800 ft AGL from Temp-Dew spread
CeilingNone
Temp12°C
Dew Point00°C (44% RH)
AAT10.0°C
QNH1014 hPa
Raw Report
KMYJ 232135Z AUTO 00000KT 7SM CLR 12/00 A2994 RMK AO2=

Extra information for KMYJ:More info

Social comments